createdAt,value
2023-05-09T00:00:40.394Z,101694.34
2023-05-09T00:01:43.955Z,101686.72
2023-05-09T00:02:48.080Z,101692.81
2023-05-09T00:03:51.946Z,101689.34
2023-05-09T00:04:55.397Z,101687.28
2023-05-09T00:05:57.599Z,101689.88
2023-05-09T00:07:03.283Z,101687.41
2023-05-09T00:08:05.795Z,101681.59
2023-05-09T00:09:09.526Z,101681.63
2023-05-09T00:10:11.815Z,101681.22
2023-05-09T00:11:15.285Z,101678.00
2023-05-09T00:12:17.659Z,101674.41
2023-05-09T00:13:21.106Z,101673.09
2023-05-09T00:14:24.943Z,101669.66
2023-05-09T00:15:30.625Z,101665.72
2023-05-09T00:16:34.478Z,101659.63
2023-05-09T00:17:38.694Z,101654.34
2023-05-09T00:18:42.388Z,101649.03
2023-05-09T00:19:45.783Z,101650.09
2023-05-09T00:20:48.183Z,101648.47
2023-05-09T00:22:04.807Z,101654.31
2023-05-09T00:23:07.552Z,101639.97
2023-05-09T00:24:12.336Z,101642.91
2023-05-09T00:25:14.893Z,101650.06
2023-05-09T00:26:19.572Z,101646.88
2023-05-09T00:27:33.721Z,101654.31
2023-05-09T00:28:38.439Z,101651.13
2023-05-09T00:29:42.359Z,101647.19
2023-05-09T00:30:47.425Z,101654.31
2023-05-09T00:31:50.178Z,101654.06
2023-05-09T00:32:55.410Z,101654.84
2023-05-09T00:33:58.078Z,101650.88
2023-05-09T00:35:03.333Z,101649.56
2023-05-09T00:36:08.072Z,101655.13
2023-05-09T00:37:13.555Z,101657.50
2023-05-09T00:38:16.750Z,101655.13
2023-05-09T00:39:22.122Z,101653.22
2023-05-09T00:40:25.477Z,101653.44
2023-05-09T00:41:29.605Z,101656.91
2023-05-09T00:42:31.919Z,101661.69
2023-05-09T00:43:35.312Z,101662.69
2023-05-09T00:44:37.684Z,101661.19
2023-05-09T00:45:41.130Z,101663.25
2023-05-09T00:46:45.225Z,101663.19
2023-05-09T00:47:48.699Z,101672.13
2023-05-09T00:48:52.606Z,101666.56
2023-05-09T00:49:56.857Z,101663.66
2023-05-09T00:51:00.554Z,101671.06
2023-05-09T00:52:05.077Z,101661.06
2023-05-09T00:53:08.546Z,101661.41
2023-05-09T00:54:12.183Z,101666.47
2023-05-09T00:55:16.521Z,101668.63
2023-05-09T00:56:20.482Z,101667.28
2023-05-09T00:57:23.266Z,101668.34
2023-05-09T00:58:27.160Z,101673.09
2023-05-09T00:59:29.570Z,101673.91
2023-05-09T01:00:33.780Z,101675.19
2023-05-09T01:01:38.038Z,101680.69
2023-05-09T01:02:43.551Z,101672.22
2023-05-09T01:03:47.608Z,101674.28
2023-05-09T01:04:51.185Z,101671.69
2023-05-09T01:06:03.324Z,101680.19
2023-05-09T01:07:12.858Z,101679.81
2023-05-09T01:08:26.255Z,101673.78
2023-05-09T01:09:39.152Z,101678.97
2023-05-09T01:10:47.555Z,101669.50
2023-05-09T01:11:59.823Z,101662.38
2023-05-09T01:13:06.515Z,101659.25
2023-05-09T01:14:16.971Z,101649.19
2023-05-09T01:15:24.760Z,101656.31
2023-05-09T01:16:32.919Z,101654.22
2023-05-09T01:17:44.195Z,101646.84
2023-05-09T01:18:57.489Z,101643.34
2023-05-09T01:20:11.171Z,101639.06
2023-05-09T01:21:19.661Z,101640.78
2023-05-09T01:22:29.495Z,101637.47
2023-05-09T01:24:09.676Z,101637.66
2023-05-09T01:25:38.264Z,101645.06
2023-05-09T01:27:03.661Z,101638.34
2023-05-09T01:28:14.807Z,101633.94
2023-05-09T01:29:37.253Z,101631.97
2023-05-09T01:30:43.552Z,101633.19
2023-05-09T01:31:49.242Z,101624.47
2023-05-09T01:32:56.336Z,101631.09
2023-05-09T01:34:03.061Z,101622.88
2023-05-09T01:35:08.388Z,101631.75
2023-05-09T01:36:18.234Z,101627.66
2023-05-09T01:37:29.874Z,101627.38
2023-05-09T01:38:33.318Z,101625.63
2023-05-09T01:39:41.339Z,101620.84
2023-05-09T01:40:45.997Z,101628.66
2023-05-09T01:41:50.663Z,101630.31
2023-05-09T01:42:58.954Z,101629.06
2023-05-09T01:44:04.897Z,101632.28
2023-05-09T01:45:10.985Z,101636.78
2023-05-09T01:46:15.507Z,101638.63
2023-05-09T01:47:20.109Z,101642.84
2023-05-09T01:48:26.610Z,101644.59
2023-05-09T01:49:31.598Z,101637.09
2023-05-09T01:50:36.867Z,101638.09
2023-05-09T01:51:41.638Z,101634.16
2023-05-09T01:52:50.125Z,101634.56
2023-05-09T01:53:54.586Z,101630.59
2023-05-09T01:54:59.246Z,101625.03
2023-05-09T01:56:03.325Z,101624.81
2023-05-09T01:57:08.903Z,101620.28
2023-05-09T01:58:12.444Z,101621.28
2023-05-09T01:59:17.419Z,101620.78
2023-05-09T02:00:23.212Z,101615.28
2023-05-09T02:01:27.600Z,101617.97
2023-05-09T02:02:30.064Z,101617.44
2023-05-09T02:03:34.400Z,101618.75
2023-05-09T02:04:37.580Z,101625.81
2023-05-09T02:05:42.770Z,101628.78
2023-05-09T02:06:50.823Z,101624.47
2023-05-09T02:07:57.412Z,101624.25
2023-05-09T02:09:00.184Z,101619.00
2023-05-09T02:10:04.999Z,101625.03
2023-05-09T02:11:07.845Z,101624.31
2023-05-09T02:12:12.418Z,101621.00
2023-05-09T02:13:14.905Z,101622.16
2023-05-09T02:14:19.153Z,101612.13
2023-05-09T02:15:23.757Z,101608.44
2023-05-09T02:16:29.172Z,101601.03
2023-05-09T02:17:32.388Z,101610.03
2023-05-09T02:18:36.656Z,101604.75
2023-05-09T02:19:39.026Z,101600.00
2023-05-09T02:20:42.606Z,101605.53
2023-05-09T02:21:46.494Z,101603.22
2023-05-09T02:22:50.217Z,101594.75
2023-05-09T02:23:52.648Z,101591.06
2023-05-09T02:24:56.223Z,101598.72
2023-05-09T02:25:58.648Z,101588.16
2023-05-09T02:27:03.936Z,101595.28
2023-05-09T02:28:07.689Z,101599.25
2023-05-09T02:29:13.200Z,101611.06
2023-05-09T02:30:20.662Z,101613.38
2023-05-09T02:31:28.205Z,101614.50
2023-05-09T02:32:32.647Z,101615.03
2023-05-09T02:33:38.225Z,101622.16
2023-05-09T02:34:42.232Z,101610.16
2023-05-09T02:35:47.817Z,101617.00
2023-05-09T02:36:50.468Z,101614.34
2023-05-09T02:37:55.190Z,101613.47
2023-05-09T02:38:57.668Z,101617.03
2023-05-09T02:40:02.633Z,101618.56
2023-05-09T02:41:05.081Z,101620.69
2023-05-09T02:42:11.210Z,101613.88
2023-05-09T02:43:15.347Z,101612.59
2023-05-09T02:44:18.702Z,101609.91
2023-05-09T02:45:21.034Z,101603.56
2023-05-09T02:46:25.940Z,101598.53
2023-05-09T02:47:28.366Z,101598.28
2023-05-09T02:48:31.786Z,101605.44
2023-05-09T02:49:34.562Z,101610.75
2023-05-09T02:50:39.687Z,101607.81
2023-05-09T02:51:42.034Z,101599.09
2023-05-09T02:52:48.070Z,101594.16
2023-05-09T02:53:50.318Z,101587.28
2023-05-09T02:54:53.904Z,101599.44
2023-05-09T02:55:56.252Z,101603.94
2023-05-09T02:56:59.934Z,101604.00
2023-05-09T02:58:12.501Z,101614.75
2023-05-09T02:59:16.763Z,101606.91
2023-05-09T03:00:21.722Z,101613.78
2023-05-09T03:01:26.606Z,101609.59
2023-05-09T03:02:28.906Z,101614.47
2023-05-09T03:03:34.839Z,101605.63
2023-05-09T03:04:37.252Z,101609.25
2023-05-09T03:05:41.104Z,101604.56
2023-05-09T03:06:43.560Z,101604.84
2023-05-09T03:07:47.515Z,101603.47
2023-05-09T03:08:49.939Z,101603.22
2023-05-09T03:09:53.304Z,101599.78
2023-05-09T03:10:55.666Z,101597.22
2023-05-09T03:11:58.997Z,101594.38
2023-05-09T03:13:02.018Z,101604.84
2023-05-09T03:14:06.393Z,101593.31
2023-05-09T03:15:09.933Z,101597.53
2023-05-09T03:16:15.553Z,101599.41
2023-05-09T03:17:21.537Z,101594.69
2023-05-09T03:18:24.913Z,101597.59
2023-05-09T03:19:27.348Z,101598.16
2023-05-09T03:20:30.706Z,101613.38
2023-05-09T03:21:33.187Z,101614.56
2023-05-09T03:22:37.264Z,101614.88
2023-05-09T03:23:39.929Z,101612.31
2023-05-09T03:24:43.965Z,101605.47
2023-05-09T03:25:50.344Z,101606.56
2023-05-09T03:26:53.689Z,101614.59
2023-05-09T03:27:56.251Z,101618.94
2023-05-09T03:28:59.982Z,101622.03
2023-05-09T03:30:02.616Z,101618.50
2023-05-09T03:31:06.377Z,101609.38
2023-05-09T03:32:08.670Z,101609.25
2023-05-09T03:33:13.656Z,101595.84
2023-05-09T03:34:16.575Z,101599.94
2023-05-09T03:35:22.389Z,101598.59
2023-05-09T03:36:26.708Z,101595.41
2023-05-09T03:37:30.381Z,101598.38
2023-05-09T03:38:33.794Z,101583.25
2023-05-09T03:39:36.073Z,101571.53
2023-05-09T03:40:39.538Z,101571.06
2023-05-09T03:41:43.130Z,101562.94
2023-05-09T03:42:46.873Z,101562.94
2023-05-09T03:43:49.161Z,101564.28
2023-05-09T03:44:53.161Z,101556.84
2023-05-09T03:45:56.217Z,101572.16
2023-05-09T03:46:59.802Z,101562.06
2023-05-09T03:48:03.205Z,101572.88
2023-05-09T03:49:08.392Z,101562.88
2023-05-09T03:50:11.170Z,101565.81
2023-05-09T03:51:15.162Z,101563.75
2023-05-09T03:52:18.190Z,101567.66
2023-05-09T03:53:21.818Z,101562.06
2023-05-09T03:54:24.203Z,101564.25
2023-05-09T03:55:27.752Z,101561.63
2023-05-09T03:56:29.927Z,101560.06
2023-05-09T03:57:35.906Z,101562.16
2023-05-09T03:58:38.162Z,101567.38
2023-05-09T03:59:41.733Z,101568.72
2023-05-09T04:00:44.040Z,101564.50
2023-05-09T04:01:47.529Z,101566.09
2023-05-09T04:02:50.389Z,101565.31
2023-05-09T04:03:53.829Z,101567.47
2023-05-09T04:04:57.678Z,101572.72
2023-05-09T04:06:01.178Z,101570.06
2023-05-09T04:07:04.086Z,101571.16
2023-05-09T04:08:07.790Z,101568.53
2023-05-09T04:09:10.160Z,101574.59
2023-05-09T04:10:13.454Z,101577.50
2023-05-09T04:11:15.921Z,101566.69
2023-05-09T04:12:19.307Z,101572.78
2023-05-09T04:13:21.640Z,101571.09
2023-05-09T04:14:25.473Z,101576.13
2023-05-09T04:15:27.867Z,101578.00
2023-05-09T04:16:31.979Z,101574.56
2023-05-09T04:17:34.295Z,101566.94
2023-05-09T04:18:40.100Z,101570.56
2023-05-09T04:19:42.313Z,101562.41
2023-05-09T04:20:47.091Z,101568.22
2023-05-09T04:21:49.640Z,101561.13
2023-05-09T04:22:52.889Z,101562.41
2023-05-09T04:23:55.136Z,101560.09
2023-05-09T04:24:58.748Z,101567.41
2023-05-09T04:26:01.013Z,101567.16
2023-05-09T04:27:05.756Z,101556.34
2023-05-09T04:28:08.487Z,101558.19
2023-05-09T04:29:12.079Z,101566.72
2023-05-09T04:30:15.164Z,101552.41
2023-05-09T04:31:19.469Z,101557.94
2023-05-09T04:32:23.463Z,101557.41
2023-05-09T04:33:26.823Z,101561.63
2023-05-09T04:34:29.871Z,101560.56
2023-05-09T04:35:33.494Z,101559.75
2023-05-09T04:36:37.251Z,101560.56
2023-05-09T04:37:41.873Z,101560.56
2023-05-09T04:38:44.268Z,101558.41
2023-05-09T04:39:50.165Z,101564.22
2023-05-09T04:40:54.400Z,101555.00
2023-05-09T04:41:57.661Z,101566.09
2023-05-09T04:42:59.953Z,101566.00
2023-05-09T04:44:05.760Z,101564.94
2023-05-09T04:45:09.544Z,101562.56
2023-05-09T04:46:12.890Z,101571.63
2023-05-09T04:47:15.313Z,101566.66
2023-05-09T04:48:20.457Z,101562.97
2023-05-09T04:49:25.277Z,101573.03
2023-05-09T04:50:28.912Z,101568.31
2023-05-09T04:51:31.215Z,101569.09
2023-05-09T04:52:39.307Z,101577.81
2023-05-09T04:53:41.635Z,101568.56
2023-05-09T04:54:45.276Z,101574.41
2023-05-09T04:55:47.600Z,101574.66
2023-05-09T04:56:51.024Z,101573.31
2023-05-09T04:57:53.356Z,101572.28
2023-05-09T04:58:57.216Z,101574.66
2023-05-09T04:59:59.688Z,101578.34
2023-05-09T05:01:03.026Z,101580.88
2023-05-09T05:02:05.306Z,101586.09
2023-05-09T05:03:09.445Z,101582.97
2023-05-09T05:04:11.962Z,101575.56
2023-05-09T05:05:15.787Z,101588.44
2023-05-09T05:06:18.294Z,101582.66
2023-05-09T05:07:21.605Z,101588.13
2023-05-09T05:08:25.636Z,101582.63
2023-05-09T05:09:28.884Z,101582.31
2023-05-09T05:10:31.171Z,101586.31
2023-05-09T05:11:34.632Z,101584.81
2023-05-09T05:12:37.096Z,101583.47
2023-05-09T05:13:40.472Z,101592.59
2023-05-09T05:14:42.792Z,101596.91
2023-05-09T05:15:46.437Z,101589.31
2023-05-09T05:16:48.762Z,101581.44
2023-05-09T05:17:52.236Z,101593.88
2023-05-09T05:18:54.414Z,101590.34
2023-05-09T05:19:57.729Z,101586.03
2023-05-09T05:20:59.996Z,101585.28
2023-05-09T05:22:04.541Z,101581.38
2023-05-09T05:23:06.855Z,101580.91
2023-05-09T05:24:11.611Z,101579.31
2023-05-09T05:25:14.212Z,101580.88
2023-05-09T05:26:17.977Z,101574.81
2023-05-09T05:27:20.347Z,101570.81
2023-05-09T05:28:23.726Z,101570.56
2023-05-09T05:29:27.474Z,101563.72
2023-05-09T05:30:32.789Z,101562.69
2023-05-09T05:31:36.679Z,101555.81
2023-05-09T05:32:40.083Z,101559.81
2023-05-09T05:33:42.504Z,101553.22
2023-05-09T05:34:46.261Z,101557.38
2023-05-09T05:35:48.955Z,101564.22
2023-05-09T05:36:52.330Z,101557.66
2023-05-09T05:37:54.814Z,101557.44
2023-05-09T05:38:58.179Z,101551.09
2023-05-09T05:40:02.098Z,101547.91
2023-05-09T05:41:11.351Z,101555.59
2023-05-09T05:42:13.675Z,101559.31
2023-05-09T05:43:17.186Z,101555.88
2023-05-09T05:44:19.658Z,101560.63
2023-05-09T05:45:23.006Z,101555.31
2023-05-09T05:46:25.351Z,101555.09
2023-05-09T05:47:29.309Z,101566.72
2023-05-09T05:48:31.983Z,101559.56
2023-05-09T05:49:35.715Z,101562.22
2023-05-09T05:50:37.960Z,101559.53
2023-05-09T05:51:41.543Z,101555.59
2023-05-09T05:52:43.880Z,101560.31
2023-05-09T05:53:47.546Z,101558.72
2023-05-09T05:54:49.908Z,101555.78
2023-05-09T05:55:54.777Z,101547.94
2023-05-09T05:56:57.448Z,101552.16
2023-05-09T05:58:00.756Z,101554.28
2023-05-09T05:59:04.100Z,101557.19
2023-05-09T06:00:10.000Z,101554.81
2023-05-09T06:01:14.165Z,101553.44
2023-05-09T06:02:16.698Z,101551.38
2023-05-09T06:03:20.004Z,101547.13
2023-05-09T06:04:23.310Z,101551.88
2023-05-09T06:05:25.580Z,101547.09
2023-05-09T06:06:29.067Z,101549.75
2023-05-09T06:07:31.563Z,101559.03
2023-05-09T06:08:35.133Z,101550.84
2023-05-09T06:09:37.351Z,101544.75
2023-05-09T06:10:40.859Z,101546.03
2023-05-09T06:11:44.379Z,101548.97
2023-05-09T06:12:47.898Z,101546.34
2023-05-09T06:13:50.109Z,101543.41
2023-05-09T06:14:53.365Z,101531.75
2023-05-09T06:16:01.997Z,101536.72
2023-05-09T06:17:08.188Z,101538.59
2023-05-09T06:18:10.859Z,101536.00
2023-05-09T06:19:14.174Z,101534.88
2023-05-09T06:20:16.685Z,101537.47
2023-05-09T06:21:19.952Z,101541.44
2023-05-09T06:22:22.396Z,101534.09
2023-05-09T06:23:25.760Z,101534.63
2023-05-09T06:24:35.631Z,101533.50
2023-05-09T06:25:39.566Z,101540.91
2023-05-09T06:26:43.529Z,101531.56
2023-05-09T06:27:49.242Z,101528.91
2023-05-09T06:28:55.125Z,101529.16
2023-05-09T06:29:57.297Z,101528.44
2023-05-09T06:31:02.542Z,101518.53
2023-05-09T06:32:05.365Z,101525.34
2023-05-09T06:33:09.579Z,101526.38
2023-05-09T06:34:13.191Z,101521.03
2023-05-09T06:35:16.099Z,101520.00
2023-05-09T06:36:19.802Z,101518.94
2023-05-09T06:37:21.933Z,101524.75
2023-05-09T06:38:25.126Z,101521.97
2023-05-09T06:39:27.315Z,101522.66
2023-05-09T06:40:30.608Z,101522.91
2023-05-09T06:41:32.848Z,101516.31
2023-05-09T06:42:38.834Z,101527.22
2023-05-09T06:43:42.734Z,101528.00
2023-05-09T06:44:46.106Z,101526.25
2023-05-09T06:45:48.400Z,101528.16
2023-05-09T06:46:52.281Z,101524.53
2023-05-09T06:47:54.792Z,101530.88
2023-05-09T06:48:58.201Z,101527.16
2023-05-09T06:50:02.103Z,101519.63
2023-05-09T06:51:05.828Z,101521.69
2023-05-09T06:52:08.248Z,101521.59
2023-05-09T06:53:11.633Z,101522.22
2023-05-09T06:54:14.253Z,101520.28
2023-05-09T06:55:18.110Z,101517.06
2023-05-09T06:56:23.203Z,101514.56
2023-05-09T06:57:25.607Z,101510.72
2023-05-09T06:58:29.996Z,101508.78
2023-05-09T06:59:33.916Z,101498.84
2023-05-09T07:00:38.105Z,101500.28
2023-05-09T07:01:40.710Z,101500.91
2023-05-09T07:02:44.142Z,101501.28
2023-05-09T07:03:47.678Z,101500.91
2023-05-09T07:04:54.200Z,101493.72
2023-05-09T07:05:58.995Z,101492.50
2023-05-09T07:07:02.262Z,101503.47
2023-05-09T07:08:05.994Z,101508.13
2023-05-09T07:09:09.260Z,101496.88
2023-05-09T07:10:13.413Z,101514.88
2023-05-09T07:11:16.800Z,101512.88
2023-05-09T07:12:19.152Z,101514.47
2023-05-09T07:13:23.014Z,101519.28
2023-05-09T07:14:25.580Z,101518.81
2023-05-09T07:15:40.389Z,101523.25
2023-05-09T07:16:43.978Z,101521.03
2023-05-09T07:17:48.511Z,101523.13
2023-05-09T07:18:50.702Z,101526.13
2023-05-09T07:19:56.499Z,101524.53
2023-05-09T07:20:58.867Z,101536.78
2023-05-09T07:22:02.244Z,101539.50
2023-05-09T07:23:05.630Z,101536.41
2023-05-09T07:24:09.316Z,101536.91
2023-05-09T07:25:11.570Z,101535.97
2023-05-09T07:26:14.891Z,101532.81
2023-05-09T07:27:18.366Z,101536.00
2023-05-09T07:28:21.861Z,101535.16
2023-05-09T07:29:24.137Z,101540.47
2023-05-09T07:30:27.359Z,101537.66
2023-05-09T07:31:34.064Z,101538.13
2023-05-09T07:32:39.731Z,101536.41
2023-05-09T07:33:42.342Z,101538.81
2023-05-09T07:34:45.826Z,101538.66
2023-05-09T07:35:49.204Z,101546.31
2023-05-09T07:36:51.618Z,101541.31
2023-05-09T07:37:55.030Z,101538.47
2023-05-09T07:38:58.453Z,101548.81
2023-05-09T07:40:00.933Z,101546.66
2023-05-09T07:41:04.627Z,101547.00
2023-05-09T07:42:08.484Z,101549.34
2023-05-09T07:43:11.851Z,101554.97
2023-05-09T07:44:16.683Z,101548.06
2023-05-09T07:45:20.650Z,101545.72
2023-05-09T07:46:26.550Z,101548.41
2023-05-09T07:47:31.528Z,101544.91
2023-05-09T07:48:33.857Z,101532.38
2023-05-09T07:49:37.212Z,101532.38
2023-05-09T07:50:40.519Z,101538.47
2023-05-09T07:51:44.123Z,101524.63
2023-05-09T07:52:46.667Z,101528.44
2023-05-09T07:53:49.937Z,101532.16
2023-05-09T07:54:54.759Z,101528.31
2023-05-09T07:55:59.551Z,101528.69
2023-05-09T07:57:02.822Z,101531.69
2023-05-09T07:58:06.045Z,101522.09
2023-05-09T07:59:08.606Z,101527.22
2023-05-09T08:00:13.022Z,101525.75
2023-05-09T08:01:16.333Z,101516.91
2023-05-09T08:02:18.881Z,101519.13
2023-05-09T08:03:23.691Z,101523.28
2023-05-09T08:04:27.072Z,101516.66
2023-05-09T08:05:30.846Z,101516.84
2023-05-09T08:06:36.947Z,101516.44
2023-05-09T08:07:40.812Z,101516.13
2023-05-09T08:08:43.157Z,101532.28
2023-05-09T08:09:46.352Z,101526.84
2023-05-09T08:10:51.777Z,101533.03
2023-05-09T08:11:55.006Z,101516.47
2023-05-09T08:12:57.430Z,101523.16
2023-05-09T08:14:00.658Z,101528.25
2023-05-09T08:15:03.226Z,101534.50
2023-05-09T08:16:07.219Z,101535.47
2023-05-09T08:17:09.881Z,101537.44
2023-05-09T08:18:13.185Z,101536.69
2023-05-09T08:19:18.070Z,101531.84
2023-05-09T08:20:20.241Z,101522.59
2023-05-09T08:21:23.617Z,101518.84
2023-05-09T08:22:25.745Z,101519.88
2023-05-09T08:23:30.449Z,101527.22
2023-05-09T08:24:33.021Z,101523.22
2023-05-09T08:25:36.339Z,101526.31
2023-05-09T08:26:40.440Z,101525.78
2023-05-09T08:27:43.654Z,101535.28
2023-05-09T08:28:46.944Z,101533.41
2023-05-09T08:29:50.249Z,101527.88
2023-05-09T08:30:52.770Z,101526.38
2023-05-09T08:31:56.051Z,101523.31
2023-05-09T08:32:58.529Z,101516.00
2023-05-09T08:34:02.473Z,101516.44
2023-05-09T08:35:08.998Z,101522.91
2023-05-09T08:36:12.696Z,101518.19
2023-05-09T08:37:15.671Z,101520.66
2023-05-09T08:38:19.291Z,101525.13
2023-05-09T08:39:23.319Z,101521.81
2023-05-09T08:40:28.999Z,101523.53
2023-05-09T08:41:36.106Z,101522.34
2023-05-09T08:42:40.249Z,101525.38
2023-05-09T08:43:43.657Z,101522.09
2023-05-09T08:44:46.443Z,101523.88
2023-05-09T08:45:55.591Z,101523.78
2023-05-09T08:47:01.399Z,101517.94
2023-05-09T08:48:04.093Z,101523.50
2023-05-09T08:49:08.400Z,101510.56
2023-05-09T08:50:15.785Z,101516.03
2023-05-09T08:51:19.533Z,101516.88
2023-05-09T08:52:22.184Z,101511.88
2023-05-09T08:53:26.833Z,101505.34
2023-05-09T08:54:30.923Z,101512.31
2023-05-09T08:55:33.327Z,101510.75
2023-05-09T08:56:36.780Z,101511.41
2023-05-09T08:57:40.301Z,101501.03
2023-05-09T08:58:42.815Z,101507.66
2023-05-09T08:59:46.812Z,101511.00
2023-05-09T09:00:50.572Z,101502.72
2023-05-09T09:01:55.187Z,101505.91
2023-05-09T09:03:02.016Z,101510.56
2023-05-09T09:04:12.038Z,101510.19
2023-05-09T09:05:39.325Z,101510.28
2023-05-09T09:06:42.244Z,101515.78
2023-05-09T09:07:47.297Z,101505.31
2023-05-09T09:08:51.553Z,101503.41
2023-05-09T09:09:55.943Z,101499.50
2023-05-09T09:10:59.784Z,101508.84
2023-05-09T09:12:03.852Z,101499.56
2023-05-09T09:13:07.510Z,101503.50
2023-05-09T09:14:16.617Z,101498.50
2023-05-09T09:15:21.615Z,101501.06
2023-05-09T09:16:26.880Z,101500.25
2023-05-09T09:17:31.991Z,101501.16
2023-05-09T09:18:35.416Z,101493.91
2023-05-09T09:19:42.001Z,101498.09
2023-05-09T09:20:54.485Z,101496.13
2023-05-09T09:22:01.071Z,101500.75
2023-05-09T09:23:06.129Z,101497.19
2023-05-09T09:24:11.230Z,101500.66
2023-05-09T09:25:14.600Z,101501.03
2023-05-09T09:26:19.250Z,101490.78
2023-05-09T09:27:22.502Z,101491.19
2023-05-09T09:28:25.819Z,101494.16
2023-05-09T09:29:29.286Z,101492.16
2023-05-09T09:30:32.682Z,101497.03
2023-05-09T09:31:36.190Z,101489.91
2023-05-09T09:32:40.372Z,101493.59
2023-05-09T09:33:44.495Z,101486.69
2023-05-09T09:34:50.961Z,101485.59
2023-05-09T09:35:57.017Z,101489.34
2023-05-09T09:37:00.678Z,101487.59
2023-05-09T09:38:03.153Z,101483.38
2023-05-09T09:39:06.985Z,101485.84
2023-05-09T09:40:12.330Z,101487.47
2023-05-09T09:41:15.379Z,101492.44
2023-05-09T09:42:18.544Z,101491.09
2023-05-09T09:43:21.843Z,101485.97
2023-05-09T09:44:25.012Z,101495.19
2023-05-09T09:45:28.586Z,101486.84
2023-05-09T09:46:42.474Z,101482.09
2023-05-09T09:47:48.316Z,101486.34
2023-05-09T09:48:55.199Z,101486.84
2023-05-09T09:49:59.051Z,101483.03
2023-05-09T09:51:08.621Z,101478.16
2023-05-09T09:52:11.790Z,101478.84
2023-05-09T09:53:13.931Z,101473.22
2023-05-09T09:54:17.139Z,101473.81
2023-05-09T09:55:20.385Z,101476.31
2023-05-09T09:56:25.462Z,101472.44
2023-05-09T09:57:40.003Z,101468.47
2023-05-09T09:58:46.414Z,101469.31
2023-05-09T09:59:59.619Z,101474.78
2023-05-09T10:01:07.642Z,101474.47
2023-05-09T10:02:13.086Z,101470.03
2023-05-09T10:03:17.148Z,101478.38
2023-05-09T10:04:20.529Z,101477.97
2023-05-09T10:05:24.677Z,101485.00
2023-05-09T10:06:29.402Z,101480.06
2023-05-09T10:07:33.982Z,101488.94
2023-05-09T10:08:37.269Z,101482.75
2023-05-09T10:09:41.315Z,101481.94
2023-05-09T10:10:46.159Z,101488.25
2023-05-09T10:11:50.792Z,101486.25
2023-05-09T10:13:00.155Z,101491.13
2023-05-09T10:14:07.292Z,101484.34
2023-05-09T10:15:11.695Z,101482.84
2023-05-09T10:16:16.048Z,101477.09
2023-05-09T10:17:21.595Z,101473.72
2023-05-09T10:18:28.687Z,101471.50
2023-05-09T10:19:33.558Z,101468.28
2023-05-09T10:20:39.411Z,101466.69
2023-05-09T10:21:44.763Z,101466.84
2023-05-09T10:22:48.660Z,101470.84
2023-05-09T10:23:53.980Z,101464.94
2023-05-09T10:25:03.143Z,101467.47
2023-05-09T10:26:13.596Z,101462.94
2023-05-09T10:27:22.925Z,101463.25
2023-05-09T10:28:34.462Z,101462.91
2023-05-09T10:29:41.541Z,101467.72
2023-05-09T10:30:52.384Z,101466.31
2023-05-09T10:32:02.758Z,101470.91
2023-05-09T10:33:11.292Z,101471.00
2023-05-09T10:34:15.515Z,101469.34
2023-05-09T10:35:20.664Z,101455.59
2023-05-09T10:36:24.078Z,101468.41
2023-05-09T10:37:30.599Z,101462.38
2023-05-09T10:38:38.341Z,101460.06
2023-05-09T10:39:42.194Z,101458.41
2023-05-09T10:40:48.663Z,101461.50
2023-05-09T10:41:52.145Z,101461.06
2023-05-09T10:42:55.499Z,101466.88
2023-05-09T10:43:59.238Z,101465.03
2023-05-09T10:45:03.180Z,101462.44
2023-05-09T10:46:07.227Z,101456.91
2023-05-09T10:47:13.173Z,101465.41
2023-05-09T10:48:17.166Z,101460.06
2023-05-09T10:49:20.649Z,101456.81
2023-05-09T10:50:24.806Z,101463.69
2023-05-09T10:51:27.755Z,101458.63
2023-05-09T10:52:34.727Z,101464.91
2023-05-09T10:53:45.437Z,101450.84
2023-05-09T10:55:01.023Z,101449.97
2023-05-09T10:56:04.740Z,101451.75
2023-05-09T10:57:10.671Z,101447.47
2023-05-09T10:58:20.358Z,101436.50
2023-05-09T10:59:37.939Z,101442.34
2023-05-09T11:00:42.374Z,101436.16
2023-05-09T11:01:46.621Z,101439.28
2023-05-09T11:03:07.768Z,101437.03
2023-05-09T11:04:12.893Z,101438.59
2023-05-09T11:05:18.569Z,101433.97
2023-05-09T11:06:44.885Z,101425.41
2023-05-09T11:08:10.208Z,101432.50
2023-05-09T11:09:41.748Z,101434.72
2023-05-09T11:10:44.409Z,101428.09
2023-05-09T11:11:55.106Z,101433.28
2023-05-09T11:12:59.973Z,101439.88
2023-05-09T11:14:03.993Z,101430.69
2023-05-09T11:15:09.141Z,101428.34
2023-05-09T11:16:13.513Z,101428.06
2023-05-09T11:17:31.752Z,101426.13
2023-05-09T11:18:34.621Z,101434.28
2023-05-09T11:19:40.294Z,101429.69
2023-05-09T11:20:47.531Z,101428.53
2023-05-09T11:22:01.146Z,101423.44
2023-05-09T11:23:08.682Z,101432.41
2023-05-09T11:24:18.292Z,101431.28
2023-05-09T11:25:28.505Z,101419.44
2023-05-09T11:26:32.634Z,101423.09
2023-05-09T11:27:43.655Z,101419.75
2023-05-09T11:28:55.307Z,101419.94
2023-05-09T11:29:59.419Z,101431.00
2023-05-09T11:31:12.196Z,101425.25
2023-05-09T11:32:16.192Z,101423.25
2023-05-09T11:33:24.224Z,101420.81
2023-05-09T11:34:26.826Z,101428.84
2023-05-09T11:35:30.306Z,101414.78
2023-05-09T11:36:33.916Z,101421.06
2023-05-09T11:37:46.623Z,101416.50
2023-05-09T11:39:02.234Z,101413.44
2023-05-09T11:40:06.208Z,101410.00
2023-05-09T11:41:08.872Z,101414.03
2023-05-09T11:42:22.713Z,101412.06
2023-05-09T11:43:26.360Z,101408.44
2023-05-09T11:44:33.511Z,101403.03
2023-05-09T11:45:37.262Z,101398.66
2023-05-09T11:46:39.791Z,101405.84
2023-05-09T11:47:44.787Z,101395.09
2023-05-09T11:48:49.418Z,101396.69
2023-05-09T11:49:53.813Z,101399.41
2023-05-09T11:50:57.115Z,101400.03
2023-05-09T11:52:01.197Z,101403.09
2023-05-09T11:53:04.459Z,101405.50
2023-05-09T11:54:11.381Z,101403.22
2023-05-09T11:55:17.761Z,101397.84
2023-05-09T11:56:23.223Z,101404.25
2023-05-09T11:57:25.725Z,101403.38
2023-05-09T11:58:29.639Z,101394.94
2023-05-09T11:59:34.360Z,101400.63
2023-05-09T12:00:38.194Z,101399.34
2023-05-09T12:01:42.626Z,101404.09
2023-05-09T12:02:47.093Z,101400.69
2023-05-09T12:03:52.044Z,101405.91
2023-05-09T12:04:55.359Z,101408.56
2023-05-09T12:05:57.588Z,101408.13
2023-05-09T12:07:00.855Z,101397.00
2023-05-09T12:08:05.880Z,101397.41
2023-05-09T12:09:10.858Z,101398.75
2023-05-09T12:10:16.104Z,101396.38
2023-05-09T12:11:18.775Z,101394.84
2023-05-09T12:12:22.752Z,101392.03
2023-05-09T12:13:26.661Z,101399.63
2023-05-09T12:14:32.284Z,101381.88
2023-05-09T12:15:43.684Z,101387.16
2023-05-09T12:16:50.101Z,101385.59
2023-05-09T12:18:04.582Z,101381.06
2023-05-09T12:19:12.083Z,101389.16
2023-05-09T12:20:15.394Z,101389.72